Time;durP1;ratioP1;P1;durP2;ratioP2;P2;SDS_P1;SDS_P2;PMS_P1;PMS_P2;Temp;Humidity;BMP_temperature;BMP_pressure;BME280_temperature;BME280_humidity;BME280_pressure;Samples;Min_cycle;Max_cycle;Signal;HPM_P1;HPM_P2
2023/07/24 00:01:12;;;;;;;10.45;2.85;;;17.30;99.90;;;;;;5047758;28;20063;-60
2023/07/24 00:03:39;;;;;;;10.15;3.30;;;17.30;99.90;;;;;;5051216;28;20053;-60
2023/07/24 00:06:06;;;;;;;6.45;2.85;;;17.30;99.90;;;;;;5048236;28;20036;-60
2023/07/24 00:08:32;;;;;;;6.07;2.55;;;17.30;99.90;;;;;;5059882;28;20052;-60
2023/07/24 00:10:59;;;;;;;3.33;2.00;;;17.40;99.90;;;;;;5039333;28;20056;-59
2023/07/24 00:13:26;;;;;;;8.10;2.58;;;17.50;99.90;;;;;;5046465;28;20415;-59
2023/07/24 00:15:53;;;;;;;9.00;2.70;;;17.40;99.90;;;;;;5037025;28;20038;-62
2023/07/24 00:18:20;;;;;;;8.15;2.25;;;17.40;99.90;;;;;;5050549;28;20064;-59
2023/07/24 00:20:46;;;;;;;6.38;2.08;;;17.50;99.90;;;;;;5040060;28;20037;-59
2023/07/24 00:23:13;;;;;;;9.05;2.80;;;17.50;99.90;;;;;;5041745;28;20040;-59
2023/07/24 00:25:40;;;;;;;5.28;2.13;;;17.40;99.90;;;;;;5042944;28;20054;-59
2023/07/24 00:28:07;;;;;;;7.97;2.42;;;17.40;99.90;;;;;;5050895;28;20045;-59
2023/07/24 00:30:34;;;;;;;5.43;2.50;;;17.40;99.90;;;;;;5050874;28;20302;-59
2023/07/24 00:33:01;;;;;;;8.57;2.42;;;17.30;99.90;;;;;;4703985;28;10000601;-59
2023/07/24 00:35:28;;;;;;;10.27;2.42;;;17.30;99.90;;;;;;5040394;28;20072;-59
2023/07/24 00:37:54;;;;;;;4.95;2.20;;;17.30;99.90;;;;;;5042519;28;20048;-59
2023/07/24 00:40:21;;;;;;;4.88;2.78;;;17.30;99.90;;;;;;5053632;28;20407;-59
2023/07/24 00:42:48;;;;;;;7.03;2.85;;;17.30;99.90;;;;;;5046774;28;20538;-59
2023/07/24 00:45:15;;;;;;;4.80;2.08;;;17.30;99.90;;;;;;5050308;28;20699;-58
2023/07/24 00:47:45;;;;;;;10.90;2.83;;;17.30;99.90;;;;;;5045681;28;20052;-59
2023/07/24 00:50:12;;;;;;;6.82;2.78;;;17.30;99.90;;;;;;5046462;28;20080;-59
2023/07/24 00:52:39;;;;;;;6.20;2.40;;;17.20;99.90;;;;;;5052562;28;20048;-59
2023/07/24 00:55:06;;;;;;;5.32;2.30;;;17.30;99.90;;;;;;5044198;28;20487;-59
2023/07/24 00:57:33;;;;;;;10.27;3.72;;;17.20;99.90;;;;;;5034421;28;20044;-59
2023/07/24 00:59:59;;;;;;;6.43;2.60;;;17.20;99.90;;;;;;5055252;28;20045;-60
2023/07/24 01:02:26;;;;;;;7.65;2.30;;;17.20;99.90;;;;;;5033997;28;20041;-59
2023/07/24 01:04:53;;;;;;;5.63;2.63;;;17.20;99.90;;;;;;5052252;28;20102;-59
2023/07/24 01:07:20;;;;;;;7.63;2.50;;;17.20;99.90;;;;;;5043269;28;20095;-60
2023/07/24 01:09:47;;;;;;;9.68;2.80;;;17.10;99.90;;;;;;5052795;28;20051;-59
2023/07/24 01:12:22;;;;;;;10.77;2.95;;;17.10;99.90;;;;;;5044946;28;20049;-61
2023/07/24 01:14:52;;;;;;;8.00;2.60;;;17.10;99.90;;;;;;5054801;28;20049;-59
2023/07/24 01:17:23;;;;;;;7.82;2.90;;;17.10;99.90;;;;;;5027533;28;20416;-59
2023/07/24 01:19:54;;;;;;;10.32;2.83;;;17.00;99.90;;;;;;5046327;28;20056;-59
2023/07/24 01:22:29;;;;;;;5.97;2.22;;;17.00;99.90;;;;;;5033533;28;20045;-59
2023/07/24 01:25:06;;;;;;;8.32;2.50;;;16.90;99.90;;;;;;5044651;28;20265;-59
2023/07/24 01:27:33;;;;;;;6.68;2.88;;;16.80;99.90;;;;;;5037672;28;20365;-59
2023/07/24 01:30:00;;;;;;;6.97;2.40;;;16.80;99.90;;;;;;5040145;28;20515;-59
2023/07/24 01:32:26;;;;;;;6.15;3.05;;;16.80;99.90;;;;;;5045150;28;20059;-59
2023/07/24 01:34:54;;;;;;;5.68;2.92;;;16.90;99.90;;;;;;5045024;28;20075;-60
2023/07/24 01:37:21;;;;;;;5.88;2.35;;;16.90;99.90;;;;;;5045696;28;20045;-59
2023/07/24 01:39:48;;;;;;;9.43;2.72;;;16.90;99.90;;;;;;5053000;28;20068;-59
2023/07/24 01:42:15;;;;;;;12.75;2.53;;;16.90;99.90;;;;;;5053858;28;20546;-59
2023/07/24 01:44:42;;;;;;;9.88;2.53;;;16.90;99.90;;;;;;5051581;28;20491;-59
2023/07/24 01:47:08;;;;;;;4.00;2.25;;;16.90;99.90;;;;;;5048032;28;20055;-61
2023/07/24 01:49:35;;;;;;;6.07;2.60;;;16.90;99.90;;;;;;5057998;28;20045;-60
2023/07/24 01:52:02;;;;;;;8.40;2.83;;;16.90;99.90;;;;;;5051983;28;20052;-61
2023/07/24 01:54:29;;;;;;;8.00;2.47;;;16.90;99.90;;;;;;5050092;28;20045;-60
2023/07/24 01:56:56;;;;;;;8.43;2.78;;;16.90;99.90;;;;;;5064781;28;20492;-59
2023/07/24 01:59:23;;;;;;;8.73;2.55;;;16.90;99.90;;;;;;5040384;28;20045;-61
2023/07/24 02:01:50;;;;;;;8.75;2.83;;;17.00;99.90;;;;;;5053264;28;20522;-60
2023/07/24 02:04:17;;;;;;;6.30;2.25;;;17.00;99.90;;;;;;5040046;28;20592;-58
2023/07/24 02:06:44;;;;;;;9.15;2.53;;;17.00;99.90;;;;;;5049842;28;20131;-59
2023/07/24 02:09:11;;;;;;;5.93;2.75;;;17.00;99.90;;;;;;5042959;28;20405;-57
2023/07/24 02:11:37;;;;;;;7.10;2.10;;;16.90;99.90;;;;;;5054770;28;20450;-59
2023/07/24 02:14:04;;;;;;;3.83;2.40;;;16.90;99.90;;;;;;5026428;28;20042;-59
2023/07/24 02:16:31;;;;;;;10.68;2.30;;;16.90;99.90;;;;;;5055098;28;20496;-59
2023/07/24 02:18:59;;;;;;;5.78;2.30;;;16.90;99.90;;;;;;5046765;28;20045;-58
2023/07/24 02:21:25;;;;;;;7.53;2.55;;;16.80;99.90;;;;;;5048180;28;20041;-58
2023/07/24 02:23:52;;;;;;;6.90;2.88;;;16.90;99.90;;;;;;5046103;28;20291;-58
2023/07/24 02:26:19;;;;;;;4.72;2.17;;;16.80;99.90;;;;;;5045606;28;20200;-59
2023/07/24 02:28:46;;;;;;;5.43;2.28;;;16.80;99.90;;;;;;5046578;28;20049;-59
2023/07/24 02:31:13;;;;;;;6.53;2.53;;;16.70;99.90;;;;;;5044988;28;20045;-59
2023/07/24 02:33:40;;;;;;;8.20;2.67;;;16.70;99.90;;;;;;5041128;28;20075;-59
2023/07/24 02:36:06;;;;;;;6.80;2.80;;;16.70;99.90;;;;;;5047980;28;20525;-58
2023/07/24 02:38:33;;;;;;;11.90;2.25;;;16.70;99.90;;;;;;5055055;28;20286;-59
2023/07/24 02:41:00;;;;;;;12.20;3.97;;;16.60;99.90;;;;;;5049048;28;20055;-58
2023/07/24 02:43:27;;;;;;;8.57;2.00;;;16.70;99.90;;;;;;5049763;28;20060;-58
2023/07/24 02:45:53;;;;;;;8.10;3.30;;;16.70;99.90;;;;;;5038420;28;20041;-59
2023/07/24 02:48:20;;;;;;;5.07;2.50;;;16.70;99.90;;;;;;5059924;28;20101;-63
2023/07/24 02:50:50;;;;;;;4.07;2.75;;;16.70;99.90;;;;;;5046340;28;20037;-60
2023/07/24 02:53:20;;;;;;;7.00;2.55;;;16.80;99.90;;;;;;5042950;28;20047;-58
2023/07/24 02:55:47;;;;;;;8.70;3.00;;;16.80;99.90;;;;;;5046053;28;20045;-60
2023/07/24 02:58:14;;;;;;;8.23;2.20;;;16.80;99.90;;;;;;5054126;28;20056;-61
2023/07/24 03:00:41;;;;;;;5.40;2.58;;;16.80;99.90;;;;;;5047289;28;20038;-59
2023/07/24 03:03:08;;;;;;;8.20;2.45;;;16.70;99.90;;;;;;5053568;28;20072;-59
2023/07/24 03:05:35;;;;;;;4.80;2.15;;;16.70;99.90;;;;;;5048776;28;20124;-58
2023/07/24 03:08:01;;;;;;;9.63;2.90;;;16.70;99.90;;;;;;5057093;28;20051;-59
2023/07/24 03:10:28;;;;;;;8.05;2.40;;;16.70;99.90;;;;;;5045928;28;20080;-59
2023/07/24 03:12:55;;;;;;;6.00;2.28;;;16.70;99.90;;;;;;5040191;28;20183;-59
2023/07/24 03:15:22;;;;;;;6.78;2.00;;;16.70;99.90;;;;;;5056770;28;20097;-59
2023/07/24 03:17:49;;;;;;;5.93;2.13;;;16.70;99.90;;;;;;5047699;28;20989;-59
2023/07/24 03:20:17;;;;;;;8.15;2.15;;;16.70;99.90;;;;;;5048502;28;20037;-60
2023/07/24 03:22:44;;;;;;;7.90;2.30;;;16.70;99.90;;;;;;5048257;28;20075;-59
2023/07/24 03:25:11;;;;;;;5.00;2.15;;;16.70;99.90;;;;;;5047710;28;20052;-59
2023/07/24 03:27:38;;;;;;;6.20;1.98;;;16.70;99.90;;;;;;5038143;28;20202;-59
2023/07/24 03:30:05;;;;;;;4.57;2.00;;;16.70;99.90;;;;;;5060912;28;20048;-59
2023/07/24 03:32:32;;;;;;;5.05;2.10;;;16.60;99.90;;;;;;5040297;28;20416;-59
2023/07/24 03:34:59;;;;;;;7.72;2.00;;;16.60;99.90;;;;;;5038418;28;20103;-59
2023/07/24 03:37:26;;;;;;;7.05;2.30;;;16.60;99.90;;;;;;5035189;28;20038;-60
2023/07/24 03:39:53;;;;;;;4.10;2.17;;;16.60;99.90;;;;;;5061780;28;20056;-59
2023/07/24 03:42:32;;;;;;;10.88;3.63;;;16.60;99.90;;;;;;5051273;28;20044;-60
2023/07/24 03:44:59;;;;;;;11.23;2.63;;;16.60;99.90;;;;;;5043376;28;20052;-59
2023/07/24 03:47:26;;;;;;;4.85;2.33;;;16.60;99.90;;;;;;5042884;28;20049;-60
2023/07/24 03:49:52;;;;;;;5.13;2.50;;;16.60;99.90;;;;;;5052520;28;20044;-59
2023/07/24 03:52:19;;;;;;;6.97;2.08;;;16.60;99.90;;;;;;5049201;28;20042;-58
2023/07/24 03:54:46;;;;;;;5.63;2.20;;;16.50;99.90;;;;;;5061547;28;20569;-59
2023/07/24 03:57:13;;;;;;;8.77;2.47;;;16.50;99.90;;;;;;5044416;28;20059;-59
2023/07/24 03:59:40;;;;;;;6.47;2.13;;;16.50;99.90;;;;;;5052504;28;20087;-59
2023/07/24 04:02:07;;;;;;;5.82;2.53;;;16.50;99.90;;;;;;5051520;28;20053;-59
2023/07/24 04:04:37;;;;;;;8.70;2.22;;;16.60;99.90;;;;;;5032701;28;20576;-59
2023/07/24 04:07:04;;;;;;;7.80;2.30;;;16.60;99.90;;;;;;5050416;28;20036;-59
2023/07/24 04:09:31;;;;;;;8.45;2.63;;;16.60;99.90;;;;;;5039001;28;20049;-59
2023/07/24 04:11:57;;;;;;;6.75;2.05;;;16.60;99.90;;;;;;5044937;28;20044;-59
2023/07/24 04:14:24;;;;;;;6.13;2.50;;;16.50;99.90;;;;;;5047914;28;20078;-59
2023/07/24 04:16:51;;;;;;;8.02;2.63;;;16.50;99.90;;;;;;5046681;28;20393;-63
2023/07/24 04:19:18;;;;;;;7.50;2.40;;;16.50;99.90;;;;;;5041614;28;20059;-60
2023/07/24 04:21:45;;;;;;;6.95;2.47;;;16.50;99.90;;;;;;5048644;28;20045;-60
2023/07/24 04:24:11;;;;;;;5.63;2.20;;;16.60;99.90;;;;;;5041084;28;20052;-59
2023/07/24 04:26:39;;;;;;;9.13;2.17;;;16.60;99.90;;;;;;5051683;28;20041;-59
2023/07/24 04:29:06;;;;;;;6.22;1.83;;;16.70;99.90;;;;;;5041059;28;20053;-60
2023/07/24 04:31:33;;;;;;;7.05;1.92;;;16.70;99.90;;;;;;5054670;28;20060;-59
2023/07/24 04:34:00;;;;;;;5.55;2.30;;;16.70;99.90;;;;;;5046120;28;20049;-59
2023/07/24 04:36:27;;;;;;;11.68;2.88;;;16.70;99.90;;;;;;5046614;28;20056;-60
2023/07/24 04:38:54;;;;;;;7.07;2.20;;;16.70;99.90;;;;;;5046304;28;20045;-59
2023/07/24 04:41:21;;;;;;;5.38;2.45;;;16.70;99.90;;;;;;5038448;28;20052;-59
2023/07/24 04:43:48;;;;;;;6.60;2.30;;;16.70;99.90;;;;;;5046318;28;20049;-60
2023/07/24 04:46:14;;;;;;;10.40;3.03;;;16.70;99.90;;;;;;5044074;28;20168;-59
2023/07/24 04:48:41;;;;;;;7.72;2.17;;;16.60;99.90;;;;;;5039511;28;20049;-59
2023/07/24 04:51:09;;;;;;;8.98;2.30;;;16.60;99.90;;;;;;5049537;28;20037;-60
2023/07/24 04:53:35;;;;;;;8.40;2.13;;;16.60;99.90;;;;;;5045507;28;20488;-59
2023/07/24 04:56:02;;;;;;;7.45;2.72;;;16.70;99.90;;;;;;5043148;28;20056;-60
2023/07/24 04:58:29;;;;;;;5.85;2.08;;;16.70;99.90;;;;;;5050390;28;20050;-59
2023/07/24 05:00:56;;;;;;;8.13;2.50;;;16.60;99.90;;;;;;5041511;28;20041;-59
2023/07/24 05:03:22;;;;;;;6.00;2.70;;;16.70;99.90;;;;;;5050482;28;20098;-60
2023/07/24 05:05:54;;;;;;;7.30;1.83;;;16.70;99.90;;;;;;5050610;28;20407;-59
2023/07/24 05:08:21;;;;;;;12.23;2.83;;;16.70;99.90;;;;;;5062931;28;20048;-59
2023/07/24 05:10:56;;;;;;;9.38;2.70;;;16.70;99.90;;;;;;5043830;28;20421;-59
2023/07/24 05:13:23;;;;;;;6.72;2.22;;;16.70;99.90;;;;;;5052157;28;20523;-59
2023/07/24 05:15:50;;;;;;;4.75;2.55;;;16.70;99.90;;;;;;5047439;28;20048;-62
2023/07/24 05:18:17;;;;;;;11.57;3.00;;;16.70;99.90;;;;;;5051126;28;20049;-59
2023/07/24 05:20:47;;;;;;;8.40;3.58;;;16.70;99.90;;;;;;5043759;28;20045;-60
2023/07/24 05:23:14;;;;;;;6.63;2.63;;;16.70;99.90;;;;;;5048431;28;20052;-59
2023/07/24 05:25:41;;;;;;;6.22;2.13;;;16.80;99.90;;;;;;5043280;28;20136;-60
2023/07/24 05:28:08;;;;;;;6.35;2.55;;;16.80;99.90;;;;;;5048720;28;20558;-59
2023/07/24 05:30:35;;;;;;;9.38;3.05;;;16.80;99.90;;;;;;5050939;28;20040;-59
2023/07/24 05:33:02;;;;;;;7.63;2.63;;;16.80;99.90;;;;;;5048458;28;20072;-60
2023/07/24 05:35:29;;;;;;;8.85;2.83;;;16.80;99.90;;;;;;5045135;28;20053;-59
2023/07/24 05:37:56;;;;;;;5.88;2.10;;;16.80;99.90;;;;;;5050856;28;20511;-59
2023/07/24 05:40:23;;;;;;;8.77;2.65;;;16.70;99.90;;;;;;5051722;28;20086;-59
2023/07/24 05:42:49;;;;;;;6.25;2.22;;;16.60;99.90;;;;;;5047906;28;20045;-59
2023/07/24 05:45:16;;;;;;;8.55;1.88;;;16.50;99.90;;;;;;5053581;28;20056;-59
2023/07/24 05:47:43;;;;;;;9.63;3.10;;;16.50;99.90;;;;;;5048098;28;20041;-60
2023/07/24 05:50:10;;;;;;;6.15;2.25;;;16.50;99.90;;;;;;5048586;28;20099;-60
2023/07/24 05:52:37;;;;;;;5.70;2.47;;;16.60;99.90;;;;;;5045457;28;20045;-60
2023/07/24 05:55:04;;;;;;;4.43;2.10;;;16.70;99.90;;;;;;5054883;28;20048;-63
2023/07/24 05:57:31;;;;;;;6.30;2.10;;;16.60;99.90;;;;;;5054828;28;20049;-61
2023/07/24 05:59:57;;;;;;;10.63;2.38;;;16.80;99.90;;;;;;5050840;28;20045;-61
2023/07/24 06:02:24;;;;;;;6.32;2.20;;;16.80;99.90;;;;;;5041654;28;20041;-60
2023/07/24 06:04:51;;;;;;;4.80;2.22;;;16.90;99.90;;;;;;5059165;28;20056;-61
2023/07/24 06:07:18;;;;;;;10.23;2.20;;;16.90;99.90;;;;;;5044597;28;20576;-60
2023/07/24 06:09:45;;;;;;;10.15;2.05;;;17.00;99.90;;;;;;5050531;28;20045;-60
2023/07/24 06:12:11;;;;;;;8.43;2.38;;;17.10;99.90;;;;;;4699995;28;10000704;-61
2023/07/24 06:14:38;;;;;;;4.45;2.20;;;17.20;99.90;;;;;;5041407;28;20064;-59
2023/07/24 06:17:05;;;;;;;5.18;2.28;;;17.20;99.90;;;;;;5043905;28;20519;-60
2023/07/24 06:19:32;;;;;;;5.68;2.42;;;17.20;99.90;;;;;;5050199;28;20706;-60
2023/07/24 06:21:59;;;;;;;6.25;2.30;;;17.20;99.90;;;;;;5050956;28;20383;-60
2023/07/24 06:24:26;;;;;;;11.57;2.53;;;17.30;99.90;;;;;;5047968;28;20053;-59
2023/07/24 06:26:53;;;;;;;7.95;2.03;;;17.30;99.90;;;;;;5043561;28;20411;-60
2023/07/24 06:29:20;;;;;;;8.27;2.63;;;17.40;99.90;;;;;;5042074;28;20037;-60
2023/07/24 06:31:46;;;;;;;8.85;2.20;;;17.40;99.90;;;;;;5046126;28;20060;-60
2023/07/24 06:34:13;;;;;;;9.55;1.73;;;17.50;99.90;;;;;;5032605;28;20083;-60
2023/07/24 06:36:40;;;;;;;9.90;2.30;;;17.40;99.90;;;;;;5043235;28;20099;-59
2023/07/24 06:39:07;;;;;;;5.25;2.03;;;17.30;99.90;;;;;;5033245;28;20064;-59
2023/07/24 06:41:34;;;;;;;10.02;2.95;;;17.20;99.90;;;;;;5044668;28;20067;-67
2023/07/24 06:44:01;;;;;;;7.70;2.45;;;17.30;99.90;;;;;;5041609;28;20053;-61
2023/07/24 06:46:28;;;;;;;4.68;1.83;;;17.30;99.90;;;;;;5043452;28;20055;-61
2023/07/24 06:48:55;;;;;;;5.75;2.15;;;17.40;99.90;;;;;;5040411;28;20045;-61
2023/07/24 06:51:22;;;;;;;6.80;2.03;;;17.40;99.90;;;;;;5053501;28;20420;-61
2023/07/24 06:53:48;;;;;;;5.47;2.05;;;17.40;99.90;;;;;;5041748;28;20042;-60
2023/07/24 06:56:15;;;;;;;8.93;2.13;;;17.50;99.90;;;;;;5040648;28;20052;-61
2023/07/24 06:58:42;;;;;;;9.73;3.35;;;17.50;99.90;;;;;;5043745;28;20056;-61
2023/07/24 07:01:09;;;;;;;5.22;2.20;;;17.50;99.90;;;;;;5055678;28;20048;-59
2023/07/24 07:03:36;;;;;;;5.53;2.17;;;17.50;99.90;;;;;;5045849;28;20053;-59
2023/07/24 07:06:03;;;;;;;8.50;2.10;;;17.40;99.90;;;;;;5047217;28;20045;-61
2023/07/24 07:08:30;;;;;;;9.20;2.63;;;17.50;99.90;;;;;;5043132;28;20044;-61
2023/07/24 07:10:57;;;;;;;5.55;1.85;;;17.50;99.90;;;;;;5050399;28;20146;-67
2023/07/24 07:13:24;;;;;;;5.10;1.95;;;17.60;99.90;;;;;;5047715;28;20041;-61
2023/07/24 07:15:51;;;;;;;6.57;2.05;;;17.60;99.90;;;;;;5045728;28;20045;-61
2023/07/24 07:18:18;;;;;;;7.32;2.50;;;17.50;99.90;;;;;;5044404;28;20045;-62
2023/07/24 07:20:49;;;;;;;7.82;2.92;;;17.50;99.90;;;;;;5036932;28;20436;-61
2023/07/24 07:23:16;;;;;;;9.57;2.45;;;17.40;99.90;;;;;;5043596;28;20061;-61
2023/07/24 07:25:44;;;;;;;5.15;2.15;;;17.40;99.90;;;;;;5035442;28;20456;-61
2023/07/24 07:28:15;;;;;;;4.85;1.95;;;17.40;99.90;;;;;;5042680;28;20048;-61
2023/07/24 07:30:42;;;;;;;8.75;2.47;;;17.30;99.90;;;;;;5043014;28;20578;-61
2023/07/24 07:33:11;;;;;;;3.78;2.08;;;17.30;99.90;;;;;;5046468;28;20512;-60
2023/07/24 07:35:38;;;;;;;6.95;2.55;;;17.30;99.90;;;;;;5043707;28;20056;-61
2023/07/24 07:38:05;;;;;;;5.75;1.45;;;17.40;99.90;;;;;;5044756;28;20061;-61
2023/07/24 07:40:33;;;;;;;6.00;2.28;;;17.40;99.90;;;;;;5044082;28;20056;-61
2023/07/24 07:42:59;;;;;;;9.10;2.63;;;17.50;99.90;;;;;;5043633;28;20132;-61
2023/07/24 07:45:26;;;;;;;4.78;2.00;;;17.50;99.90;;;;;;5038778;28;20045;-60
2023/07/24 07:47:53;;;;;;;3.40;1.70;;;17.40;99.90;;;;;;5041675;28;20126;-59
2023/07/24 07:50:20;;;;;;;4.72;1.95;;;17.50;99.90;;;;;;5042331;28;20060;-60
2023/07/24 07:52:52;;;;;;;3.65;1.85;;;17.60;99.90;;;;;;5047124;28;20044;-60
2023/07/24 07:55:19;;;;;;;4.40;2.53;;;17.80;99.90;;;;;;5039068;28;20059;-60
2023/07/24 07:57:46;;;;;;;4.65;1.88;;;17.80;99.90;;;;;;5050948;28;20041;-60
2023/07/24 08:00:13;;;;;;;7.60;2.42;;;17.90;99.90;;;;;;5041851;28;20060;-60
2023/07/24 08:02:40;;;;;;;9.13;2.45;;;18.00;99.90;;;;;;5048759;28;20045;-59
2023/07/24 08:05:08;;;;;;;12.95;3.17;;;18.00;99.90;;;;;;5053369;28;20131;-60
2023/07/24 08:07:45;;;;;;;5.75;2.40;;;18.00;99.90;;;;;;5039541;28;20637;-61
2023/07/24 08:10:14;;;;;;;7.07;2.35;;;18.00;99.90;;;;;;5047926;28;20052;-58
2023/07/24 08:12:43;;;;;;;10.85;2.63;;;18.10;99.90;;;;;;5036608;28;20048;-60
2023/07/24 08:15:10;;;;;;;5.82;2.33;;;18.20;99.90;;;;;;5043020;28;20052;-61
2023/07/24 08:17:37;;;;;;;5.40;2.90;;;18.30;99.90;;;;;;5037682;28;20492;-61
2023/07/24 08:20:04;;;;;;;6.22;2.10;;;18.30;99.90;;;;;;5026340;28;20049;-60
2023/07/24 08:22:31;;;;;;;4.68;2.65;;;18.30;99.90;;;;;;5035946;28;20107;-60
2023/07/24 08:24:58;;;;;;;4.63;3.03;;;18.20;99.90;;;;;;5025896;28;20061;-58
2023/07/24 08:27:25;;;;;;;9.73;2.60;;;18.30;99.90;;;;;;5042159;28;20086;-59
2023/07/24 08:29:55;;;;;;;7.45;2.85;;;18.40;99.90;;;;;;5046163;28;20048;-59
2023/07/24 08:32:22;;;;;;;5.10;2.90;;;18.40;99.90;;;;;;5035827;28;20041;-60
2023/07/24 08:34:49;;;;;;;6.90;2.72;;;18.40;99.90;;;;;;5039940;28;20473;-59
2023/07/24 08:37:16;;;;;;;5.18;2.30;;;18.60;99.90;;;;;;5040824;28;20427;-60
2023/07/24 08:39:42;;;;;;;5.63;2.70;;;18.50;99.90;;;;;;5041831;28;20044;-60
2023/07/24 08:42:10;;;;;;;3.83;2.53;;;18.50;99.90;;;;;;5044392;28;20048;-60
2023/07/24 08:44:37;;;;;;;8.82;3.00;;;18.30;99.90;;;;;;5048908;28;20471;-60
2023/07/24 08:47:05;;;;;;;4.18;2.53;;;18.30;99.90;;;;;;5042760;28;20136;-60
2023/07/24 08:49:33;;;;;;;3.10;2.58;;;18.20;99.90;;;;;;5046961;28;20041;-60
2023/07/24 08:52:00;;;;;;;6.32;2.63;;;18.30;99.90;;;;;;5041115;28;20341;-60
2023/07/24 08:54:28;;;;;;;3.80;2.47;;;18.30;99.90;;;;;;5046771;28;20052;-61
2023/07/24 08:56:55;;;;;;;4.95;2.60;;;18.40;99.90;;;;;;5054796;28;20141;-60
2023/07/24 08:59:22;;;;;;;7.32;3.55;;;18.60;99.90;;;;;;5045396;28;20045;-60
2023/07/24 09:01:49;;;;;;;4.03;2.85;;;18.50;99.90;;;;;;5046391;28;20111;-60
2023/07/24 09:04:17;;;;;;;8.35;3.08;;;18.60;99.90;;;;;;5045488;28;20064;-61
2023/07/24 09:06:44;;;;;;;4.10;2.70;;;18.60;99.90;;;;;;5007597;28;20045;-60
2023/07/24 09:09:14;;;;;;;7.20;3.13;;;18.80;99.90;;;;;;5044152;28;20052;-62
2023/07/24 09:11:52;;;;;;;5.20;2.17;;;18.70;99.90;;;;;;5044152;28;20053;-60
2023/07/24 09:14:26;;;;;;;6.10;2.10;;;18.70;99.90;;;;;;5035575;28;20053;-60
2023/07/24 09:17:04;;;;;;;5.50;1.85;;;18.70;99.90;;;;;;5028331;28;20080;-60
2023/07/24 09:19:31;;;;;;;6.80;1.77;;;18.70;99.90;;;;;;5044413;28;20080;-59
2023/07/24 09:22:14;;;;;;;4.55;1.45;;;18.60;99.90;;;;;;5029129;28;20133;-60
2023/07/24 09:24:51;;;;;;;4.83;1.43;;;18.40;99.90;;;;;;5042375;28;20056;-59
2023/07/24 09:27:19;;;;;;;3.42;1.40;;;18.30;99.90;;;;;;5043007;28;20328;-59
2023/07/24 09:29:46;;;;;;;2.10;1.25;;;18.10;99.90;;;;;;5043244;28;20049;-59
2023/07/24 09:32:24;;;;;;;4.60;1.42;;;18.00;99.90;;;;;;5046095;28;20098;-60
2023/07/24 09:34:51;;;;;;;3.63;1.67;;;18.00;99.90;;;;;;5042696;28;20143;-59
2023/07/24 09:37:28;;;;;;;3.50;1.48;;;18.00;99.90;;;;;;5047071;28;20107;-58
2023/07/24 09:39:55;;;;;;;5.55;1.98;;;17.90;99.90;;;;;;5036690;28;20052;-57
2023/07/24 09:42:32;;;;;;;4.32;1.80;;;17.90;99.90;;;;;;5044611;28;20091;-58
2023/07/24 09:45:03;;;;;;;3.42;1.50;;;17.80;99.90;;;;;;5038615;28;20072;-56
2023/07/24 09:47:31;;;;;;;4.38;1.83;;;17.70;99.90;;;;;;5042986;28;20056;-57
2023/07/24 09:50:18;;;;;;;2.35;2.08;;;17.70;99.90;;;;;;5040237;28;20514;-56
2023/07/24 09:52:45;;;;;;;4.90;2.03;;;17.80;99.90;;;;;;5046316;28;20048;-58
2023/07/24 09:55:13;;;;;;;3.60;1.70;;;17.80;99.90;;;;;;5043613;28;20069;-58
2023/07/24 09:57:40;;;;;;;4.47;1.75;;;17.80;99.90;;;;;;5046404;28;20037;-59
2023/07/24 10:00:08;;;;;;;4.05;1.30;;;17.80;99.90;;;;;;5043337;28;20488;-59
2023/07/24 10:02:35;;;;;;;1.40;1.10;;;17.80;99.90;;;;;;5030906;28;20099;-56
2023/07/24 10:05:02;;;;;;;4.20;1.20;;;17.80;99.90;;;;;;5043271;28;20159;-58
2023/07/24 10:07:29;;;;;;;1.33;1.08;;;17.70;99.90;;;;;;5047225;28;20045;-57
2023/07/24 10:09:56;;;;;;;2.28;0.82;;;17.60;99.90;;;;;;5044802;28;20183;-58
2023/07/24 10:12:23;;;;;;;0.90;0.60;;;17.60;99.90;;;;;;5036967;28;20051;-56
2023/07/24 10:14:50;;;;;;;1.52;0.70;;;17.60;99.90;;;;;;5041928;28;20072;-58
2023/07/24 10:17:34;;;;;;;1.27;0.88;;;17.60;99.90;;;;;;5041475;28;20373;-57
2023/07/24 10:20:05;;;;;;;0.70;0.70;;;17.70;99.90;;;;;;5044416;28;20561;-57
2023/07/24 10:22:32;;;;;;;1.35;0.80;;;17.70;99.90;;;;;;5044578;28;20076;-59
2023/07/24 10:24:59;;;;;;;1.40;0.80;;;17.90;99.90;;;;;;5039853;28;20057;-57
2023/07/24 10:27:28;;;;;;;3.33;1.23;;;17.80;99.90;;;;;;5039714;28;20049;-57
2023/07/24 10:30:02;;;;;;;2.70;0.80;;;18.00;99.90;;;;;;5044539;28;20060;-58
2023/07/24 10:32:49;;;;;;;3.65;0.75;;;18.10;99.90;;;;;;5042587;28;20048;-58
2023/07/24 10:35:22;;;;;;;1.38;0.75;;;18.10;99.90;;;;;;5038087;28;20088;-58
2023/07/24 10:37:59;;;;;;;2.20;0.82;;;18.10;99.90;;;;;;5043953;28;20049;-57
2023/07/24 10:40:26;;;;;;;0.70;0.50;;;18.00;99.90;;;;;;5042226;28;20059;-57
2023/07/24 10:43:00;;;;;;;1.20;0.85;;;17.90;99.90;;;;;;5039782;28;20072;-58
2023/07/24 10:45:37;;;;;;;1.35;0.40;;;17.90;99.90;;;;;;5028690;28;20049;-56
2023/07/24 10:48:05;;;;;;;0.40;0.40;;;17.80;99.90;;;;;;5039624;28;20128;-54
2023/07/24 10:50:45;;;;;;;1.33;0.68;;;17.70;99.90;;;;;;5034735;28;20653;-55
2023/07/24 10:53:13;;;;;;;2.15;0.52;;;17.70;99.90;;;;;;5039606;28;20041;-56
2023/07/24 10:55:40;;;;;;;0.82;0.55;;;17.80;99.90;;;;;;5039623;28;20434;-60
2023/07/24 10:58:07;;;;;;;0.43;0.43;;;17.80;99.90;;;;;;5042167;28;20162;-61
2023/07/24 11:00:34;;;;;;;3.03;0.50;;;17.80;99.90;;;;;;5030474;28;20053;-54
2023/07/24 11:03:01;;;;;;;0.22;0.20;;;17.90;99.90;;;;;;5039587;28;20055;-56
2023/07/24 11:05:28;;;;;;;5.40;0.77;;;17.90;99.90;;;;;;5027172;28;20091;-59
2023/07/24 11:07:55;;;;;;;2.42;0.60;;;17.80;99.90;;;;;;5040540;28;20060;-58
2023/07/24 11:10:22;;;;;;;0.50;0.40;;;17.80;99.90;;;;;;5033653;28;20041;-55
2023/07/24 11:12:51;;;;;;;0.70;0.38;;;18.00;99.90;;;;;;5034895;28;20107;-56
2023/07/24 11:15:24;;;;;;;0.28;0.28;;;18.10;99.90;;;;;;5042657;28;20198;-58
2023/07/24 11:17:51;;;;;;;0.70;0.30;;;18.30;99.90;;;;;;5040839;28;20041;-57
2023/07/24 11:20:18;;;;;;;0.85;0.30;;;18.50;99.90;;;;;;5048469;28;20136;-53
2023/07/24 11:22:45;;;;;;;0.93;0.40;;;18.50;99.90;;;;;;5040915;28;20045;-63
2023/07/24 11:25:12;;;;;;;0.52;0.30;;;18.40;99.90;;;;;;5017178;28;20061;-58
2023/07/24 11:27:41;;;;;;;0.35;0.30;;;18.20;99.90;;;;;;5044221;28;20496;-68
2023/07/24 11:30:09;;;;;;;0.35;0.35;;;18.10;99.90;;;;;;5047742;28;20136;-58
2023/07/24 11:32:37;;;;;;;1.35;0.30;;;18.00;99.90;;;;;;5044859;28;20049;-56
2023/07/24 11:35:04;;;;;;;7.97;0.73;;;18.00;99.90;;;;;;5045813;28;20090;-57
2023/07/24 11:37:32;;;;;;;3.75;0.60;;;18.00;99.90;;;;;;5045118;28;20057;-57
2023/07/24 11:40:04;;;;;;;0.70;0.60;;;18.20;99.90;;;;;;5045271;28;20129;-57
2023/07/24 11:42:31;;;;;;;1.30;0.68;;;18.20;99.90;;;;;;5043218;28;20091;-54
2023/07/24 11:45:00;;;;;;;0.80;0.50;;;18.20;99.90;;;;;;5035535;28;20492;-56
2023/07/24 11:47:27;;;;;;;1.20;0.50;;;18.20;99.90;;;;;;4692631;28;10000071;-55
2023/07/24 11:50:00;;;;;;;0.60;0.30;;;18.30;99.90;;;;;;5037256;28;20041;-54
2023/07/24 11:52:48;;;;;;;1.05;0.43;;;18.40;99.90;;;;;;5026447;28;20590;-56
2023/07/24 11:55:29;;;;;;;1.20;0.52;;;18.40;99.90;;;;;;5040084;28;20049;-58
2023/07/24 11:57:57;;;;;;;0.60;0.55;;;18.40;99.90;;;;;;5038588;28;20052;-57
2023/07/24 12:00:24;;;;;;;1.70;0.70;;;18.50;99.90;;;;;;5043806;28;20048;-55
2023/07/24 12:02:52;;;;;;;1.42;0.93;;;18.40;99.90;;;;;;5044852;28;20391;-54
2023/07/24 12:05:19;;;;;;;3.63;1.13;;;18.30;99.90;;;;;;5038000;28;20052;-57
2023/07/24 12:07:51;;;;;;;3.00;0.60;;;18.30;99.90;;;;;;5043682;28;20083;-57
2023/07/24 12:10:28;;;;;;;1.63;0.60;;;18.40;99.90;;;;;;5042762;28;20793;-56
2023/07/24 12:12:58;;;;;;;5.47;0.68;;;18.40;99.90;;;;;;5041903;28;20052;-55
2023/07/24 12:15:33;;;;;;;1.08;0.40;;;18.40;99.90;;;;;;5042751;28;20073;-56
2023/07/24 12:18:11;;;;;;;4.78;0.60;;;18.30;99.90;;;;;;5023289;28;20049;-63
2023/07/24 12:20:38;;;;;;;3.85;0.60;;;18.30;99.90;;;;;;5031334;28;20558;-58
2023/07/24 12:23:05;;;;;;;1.92;0.50;;;18.20;99.90;;;;;;5043591;28;20064;-56
2023/07/24 12:25:32;;;;;;;1.13;0.47;;;18.20;99.90;;;;;;5038673;28;20080;-58
2023/07/24 12:28:02;;;;;;;0.50;0.32;;;18.30;99.90;;;;;;5037594;28;20053;-57
2023/07/24 12:30:29;;;;;;;0.43;0.30;;;18.30;99.90;;;;;;5038394;28;20198;-59
2023/07/24 12:32:56;;;;;;;0.85;0.40;;;18.20;99.90;;;;;;5030461;28;20078;-58
2023/07/24 12:35:23;;;;;;;2.03;0.80;;;18.10;99.90;;;;;;5041388;28;20045;-57
2023/07/24 12:37:53;;;;;;;3.33;0.50;;;18.20;99.90;;;;;;5044873;28;20048;-55
2023/07/24 12:40:23;;;;;;;1.00;0.73;;;18.30;99.90;;;;;;5038764;28;20086;-56
2023/07/24 12:43:02;;;;;;;1.98;0.60;;;18.30;99.90;;;;;;5044573;28;20056;-55
2023/07/24 12:45:47;;;;;;;0.93;0.60;;;18.50;99.90;;;;;;5040407;28;20049;-57
2023/07/24 12:48:36;;;;;;;1.77;0.55;;;18.40;99.90;;;;;;5028665;28;20496;-57
2023/07/24 12:51:05;;;;;;;1.23;0.60;;;18.40;99.90;;;;;;5037749;28;20053;-56